sensor_id;sensor_type;location;lat;lon;timestamp;temperature;humidity
64599;SHT31;51008;51.504;11.548;2023-09-07T00:04:55;14.94;86.95
64599;SHT31;51008;51.504;11.548;2023-09-07T00:09:56;14.97;87.40
64599;SHT31;51008;51.504;11.548;2023-09-07T00:14:58;14.95;87.39
64599;SHT31;51008;51.504;11.548;2023-09-07T00:19:59;14.94;87.56
64599;SHT31;51008;51.504;11.548;2023-09-07T00:25:00;14.91;88.05
64599;SHT31;51008;51.504;11.548;2023-09-07T00:30:02;14.88;87.82
64599;SHT31;51008;51.504;11.548;2023-09-07T00:35:04;14.83;88.11
64599;SHT31;51008;51.504;11.548;2023-09-07T00:40:06;14.80;88.33
64599;SHT31;51008;51.504;11.548;2023-09-07T00:45:08;14.73;87.92
64599;SHT31;51008;51.504;11.548;2023-09-07T00:50:09;14.64;87.84
64599;SHT31;51008;51.504;11.548;2023-09-07T00:55:12;14.56;88.07
64599;SHT31;51008;51.504;11.548;2023-09-07T01:00:13;14.56;89.16
64599;SHT31;51008;51.504;11.548;2023-09-07T01:05:14;14.52;89.40
64599;SHT31;51008;51.504;11.548;2023-09-07T01:10:16;14.50;89.29
64599;SHT31;51008;51.504;11.548;2023-09-07T01:15:17;14.42;88.71
64599;SHT31;51008;51.504;11.548;2023-09-07T01:20:18;14.35;88.59
64599;SHT31;51008;51.504;11.548;2023-09-07T01:25:20;14.29;88.78
64599;SHT31;51008;51.504;11.548;2023-09-07T01:30:22;14.33;89.73
64599;SHT31;51008;51.504;11.548;2023-09-07T01:35:23;14.25;89.80
64599;SHT31;51008;51.504;11.548;2023-09-07T01:40:25;14.21;89.31
64599;SHT31;51008;51.504;11.548;2023-09-07T01:45:26;14.12;89.22
64599;SHT31;51008;51.504;11.548;2023-09-07T01:50:27;14.07;89.37
64599;SHT31;51008;51.504;11.548;2023-09-07T01:55:28;14.05;89.70
64599;SHT31;51008;51.504;11.548;2023-09-07T02:00:30;14.08;90.36
64599;SHT31;51008;51.504;11.548;2023-09-07T02:05:31;14.05;89.99
64599;SHT31;51008;51.504;11.548;2023-09-07T02:10:33;14.00;89.94
64599;SHT31;51008;51.504;11.548;2023-09-07T02:15:37;13.93;89.72
64599;SHT31;51008;51.504;11.548;2023-09-07T02:20:38;13.91;90.16
64599;SHT31;51008;51.504;11.548;2023-09-07T02:25:40;13.90;90.03
64599;SHT31;51008;51.504;11.548;2023-09-07T02:30:41;13.88;90.33
64599;SHT31;51008;51.504;11.548;2023-09-07T02:35:42;13.83;90.20
64599;SHT31;51008;51.504;11.548;2023-09-07T02:40:43;13.76;90.28
64599;SHT31;51008;51.504;11.548;2023-09-07T02:45:45;13.73;90.46
64599;SHT31;51008;51.504;11.548;2023-09-07T02:50:48;13.69;90.56
64599;SHT31;51008;51.504;11.548;2023-09-07T02:55:49;13.60;90.57
64599;SHT31;51008;51.504;11.548;2023-09-07T03:00:50;13.57;90.65
64599;SHT31;51008;51.504;11.548;2023-09-07T03:05:54;13.55;90.81
64599;SHT31;51008;51.504;11.548;2023-09-07T03:10:56;13.57;91.76
64599;SHT31;51008;51.504;11.548;2023-09-07T03:15:58;13.55;91.65
64599;SHT31;51008;51.504;11.548;2023-09-07T03:21:01;13.49;91.33
64599;SHT31;51008;51.504;11.548;2023-09-07T03:26:03;13.48;91.60
64599;SHT31;51008;51.504;11.548;2023-09-07T03:31:05;13.43;91.81
64599;SHT31;51008;51.504;11.548;2023-09-07T03:36:06;13.39;91.65
64599;SHT31;51008;51.504;11.548;2023-09-07T03:41:07;13.36;91.80
64599;SHT31;51008;51.504;11.548;2023-09-07T03:46:08;13.36;92.53
64599;SHT31;51008;51.504;11.548;2023-09-07T03:51:11;13.38;92.61
64599;SHT31;51008;51.504;11.548;2023-09-07T03:56:12;13.34;92.42
64599;SHT31;51008;51.504;11.548;2023-09-07T04:01:14;13.32;92.64
64599;SHT31;51008;51.504;11.548;2023-09-07T04:06:15;13.31;92.50
64599;SHT31;51008;51.504;11.548;2023-09-07T04:11:16;13.25;92.37
64599;SHT31;51008;51.504;11.548;2023-09-07T04:16:17;13.23;92.26
64599;SHT31;51008;51.504;11.548;2023-09-07T04:21:18;13.14;92.16
64599;SHT31;51008;51.504;11.548;2023-09-07T04:26:19;13.12;92.74
64599;SHT31;51008;51.504;11.548;2023-09-07T04:31:20;13.19;93.40
64599;SHT31;51008;51.504;11.548;2023-09-07T04:36:21;13.18;93.00
64599;SHT31;51008;51.504;11.548;2023-09-07T04:41:22;13.19;93.53
64599;SHT31;51008;51.504;11.548;2023-09-07T04:46:24;13.19;93.39
64599;SHT31;51008;51.504;11.548;2023-09-07T04:51:25;13.19;93.35
64599;SHT31;51008;51.504;11.548;2023-09-07T04:56:26;13.15;93.01
64599;SHT31;51008;51.504;11.548;2023-09-07T05:01:27;13.16;92.91
64599;SHT31;51008;51.504;11.548;2023-09-07T05:06:30;13.22;93.52
64599;SHT31;51008;51.504;11.548;2023-09-07T05:11:31;13.35;93.55
64599;SHT31;51008;51.504;11.548;2023-09-07T05:16:32;13.50;94.02
64599;SHT31;51008;51.504;11.548;2023-09-07T05:21:33;13.60;93.91
64599;SHT31;51008;51.504;11.548;2023-09-07T05:26:35;13.76;94.07
64599;SHT31;51008;51.504;11.548;2023-09-07T05:31:36;13.91;94.45
64599;SHT31;51008;51.504;11.548;2023-09-07T05:36:37;14.15;94.59
64599;SHT31;51008;51.504;11.548;2023-09-07T05:41:38;14.32;94.37
64599;SHT31;51008;51.504;11.548;2023-09-07T05:46:39;14.62;94.35
64599;SHT31;51008;51.504;11.548;2023-09-07T05:51:41;14.84;94.37
64599;SHT31;51008;51.504;11.548;2023-09-07T05:56:42;15.09;94.17
64599;SHT31;51008;51.504;11.548;2023-09-07T06:01:43;15.36;93.85
64599;SHT31;51008;51.504;11.548;2023-09-07T06:06:44;15.68;93.82
64599;SHT31;51008;51.504;11.548;2023-09-07T06:11:45;16.02;93.46
64599;SHT31;51008;51.504;11.548;2023-09-07T06:16:46;16.38;92.56
64599;SHT31;51008;51.504;11.548;2023-09-07T06:21:48;16.73;91.16
64599;SHT31;51008;51.504;11.548;2023-09-07T06:26:49;17.14;89.70
64599;SHT31;51008;51.504;11.548;2023-09-07T06:31:51;17.47;86.84
64599;SHT31;51008;51.504;11.548;2023-09-07T06:36:52;17.89;85.38
64599;SHT31;51008;51.504;11.548;2023-09-07T06:41:55;18.29;84.25
64599;SHT31;51008;51.504;11.548;2023-09-07T06:47:00;18.71;82.98
64599;SHT31;51008;51.504;11.548;2023-09-07T06:52:01;19.11;81.54
64599;SHT31;51008;51.504;11.548;2023-09-07T06:57:02;19.44;80.43
64599;SHT31;51008;51.504;11.548;2023-09-07T07:02:03;19.78;80.23
64599;SHT31;51008;51.504;11.548;2023-09-07T07:07:04;20.04;78.01
64599;SHT31;51008;51.504;11.548;2023-09-07T07:12:06;20.45;76.90
64599;SHT31;51008;51.504;11.548;2023-09-07T07:17:07;20.94;75.21
64599;SHT31;51008;51.504;11.548;2023-09-07T07:22:10;21.61;74.90
64599;SHT31;51008;51.504;11.548;2023-09-07T07:27:11;22.36;72.20
64599;SHT31;51008;51.504;11.548;2023-09-07T07:32:12;22.96;69.73
64599;SHT31;51008;51.504;11.548;2023-09-07T07:37:13;23.13;67.93
64599;SHT31;51008;51.504;11.548;2023-09-07T07:42:14;23.61;69.16
64599;SHT31;51008;51.504;11.548;2023-09-07T07:47:17;24.26;67.05
64599;SHT31;51008;51.504;11.548;2023-09-07T07:52:18;24.57;64.38
64599;SHT31;51008;51.504;11.548;2023-09-07T07:57:19;24.71;64.26
64599;SHT31;51008;51.504;11.548;2023-09-07T08:02:20;24.96;63.93
64599;SHT31;51008;51.504;11.548;2023-09-07T08:07:21;25.27;63.49
64599;SHT31;51008;51.504;11.548;2023-09-07T08:12:22;25.61;62.61
64599;SHT31;51008;51.504;11.548;2023-09-07T08:17:24;26.03;62.96
64599;SHT31;51008;51.504;11.548;2023-09-07T08:22:25;26.00;59.80
64599;SHT31;51008;51.504;11.548;2023-09-07T08:27:26;25.89;62.89
64599;SHT31;51008;51.504;11.548;2023-09-07T08:32:29;25.51;62.21
64599;SHT31;51008;51.504;11.548;2023-09-07T08:37:30;25.92;58.56
64599;SHT31;51008;51.504;11.548;2023-09-07T08:42:31;26.12;58.78
64599;SHT31;51008;51.504;11.548;2023-09-07T08:47:34;26.78;56.81
64599;SHT31;51008;51.504;11.548;2023-09-07T08:52:35;26.98;56.25
64599;SHT31;51008;51.504;11.548;2023-09-07T08:57:36;26.48;55.97
64599;SHT31;51008;51.504;11.548;2023-09-07T09:02:37;27.03;56.34
64599;SHT31;51008;51.504;11.548;2023-09-07T09:07:38;26.91;56.10
64599;SHT31;51008;51.504;11.548;2023-09-07T09:12:46;26.81;56.74
64599;SHT31;51008;51.504;11.548;2023-09-07T09:17:47;27.10;56.31
64599;SHT31;51008;51.504;11.548;2023-09-07T09:22:52;27.00;57.18
64599;SHT31;51008;51.504;11.548;2023-09-07T09:27:54;27.10;56.50
64599;SHT31;51008;51.504;11.548;2023-09-07T09:32:55;26.93;58.21
64599;SHT31;51008;51.504;11.548;2023-09-07T09:38:00;27.37;56.04
64599;SHT31;51008;51.504;11.548;2023-09-07T09:43:02;27.29;56.09
64599;SHT31;51008;51.504;11.548;2023-09-07T09:48:05;27.52;56.52
64599;SHT31;51008;51.504;11.548;2023-09-07T09:53:06;27.95;56.23
64599;SHT31;51008;51.504;11.548;2023-09-07T09:58:07;28.06;54.73
64599;SHT31;51008;51.504;11.548;2023-09-07T10:03:12;28.05;55.53
64599;SHT31;51008;51.504;11.548;2023-09-07T10:08:14;27.90;55.35
64599;SHT31;51008;51.504;11.548;2023-09-07T10:13:16;27.81;55.81
64599;SHT31;51008;51.504;11.548;2023-09-07T10:18:33;28.25;54.74
64599;SHT31;51008;51.504;11.548;2023-09-07T10:23:39;28.58;53.50
64599;SHT31;51008;51.504;11.548;2023-09-07T10:28:41;28.39;54.88
64599;SHT31;51008;51.504;11.548;2023-09-07T10:33:43;28.64;54.04
64599;SHT31;51008;51.504;11.548;2023-09-07T10:38:45;28.59;52.90
64599;SHT31;51008;51.504;11.548;2023-09-07T10:43:48;28.89;54.12
64599;SHT31;51008;51.504;11.548;2023-09-07T10:48:51;28.64;53.99
64599;SHT31;51008;51.504;11.548;2023-09-07T10:53:52;28.44;53.53
64599;SHT31;51008;51.504;11.548;2023-09-07T10:58:54;28.58;53.04
64599;SHT31;51008;51.504;11.548;2023-09-07T11:03:55;28.83;53.36
64599;SHT31;51008;51.504;11.548;2023-09-07T11:08:59;28.96;53.15
64599;SHT31;51008;51.504;11.548;2023-09-07T11:14:02;29.09;51.53
64599;SHT31;51008;51.504;11.548;2023-09-07T11:19:04;29.00;51.61
64599;SHT31;51008;51.504;11.548;2023-09-07T11:24:06;28.79;50.46
64599;SHT31;51008;51.504;11.548;2023-09-07T11:29:07;28.92;50.82
64599;SHT31;51008;51.504;11.548;2023-09-07T11:34:12;28.85;52.12
64599;SHT31;51008;51.504;11.548;2023-09-07T11:39:13;28.88;51.95
64599;SHT31;51008;51.504;11.548;2023-09-07T11:44:14;29.00;51.37
64599;SHT31;51008;51.504;11.548;2023-09-07T11:49:15;28.93;50.11
64599;SHT31;51008;51.504;11.548;2023-09-07T11:54:16;28.82;52.84
64599;SHT31;51008;51.504;11.548;2023-09-07T11:59:17;28.78;51.39
64599;SHT31;51008;51.504;11.548;2023-09-07T12:04:18;29.16;50.74
64599;SHT31;51008;51.504;11.548;2023-09-07T12:09:19;29.16;51.19
64599;SHT31;51008;51.504;11.548;2023-09-07T12:14:20;29.10;50.11
64599;SHT31;51008;51.504;11.548;2023-09-07T12:19:24;29.24;51.74
64599;SHT31;51008;51.504;11.548;2023-09-07T12:24:25;29.20;51.16
64599;SHT31;51008;51.504;11.548;2023-09-07T12:29:26;29.41;50.65
64599;SHT31;51008;51.504;11.548;2023-09-07T12:34:27;29.43;50.92
64599;SHT31;51008;51.504;11.548;2023-09-07T12:39:28;29.37;49.08
64599;SHT31;51008;51.504;11.548;2023-09-07T12:44:29;29.24;50.75
64599;SHT31;51008;51.504;11.548;2023-09-07T12:49:30;29.38;51.62
64599;SHT31;51008;51.504;11.548;2023-09-07T12:54:31;29.53;49.81
64599;SHT31;51008;51.504;11.548;2023-09-07T12:59:31;29.37;50.20
64599;SHT31;51008;51.504;11.548;2023-09-07T13:04:32;29.47;48.83
64599;SHT31;51008;51.504;11.548;2023-09-07T13:09:33;29.31;49.36
64599;SHT31;51008;51.504;11.548;2023-09-07T13:14:34;29.34;49.40
64599;SHT31;51008;51.504;11.548;2023-09-07T13:19:35;29.27;50.00
64599;SHT31;51008;51.504;11.548;2023-09-07T13:24:36;29.35;50.10
64599;SHT31;51008;51.504;11.548;2023-09-07T13:29:37;29.37;47.89
64599;SHT31;51008;51.504;11.548;2023-09-07T13:34:39;29.41;48.19
64599;SHT31;51008;51.504;11.548;2023-09-07T13:39:40;29.30;47.97
64599;SHT31;51008;51.504;11.548;2023-09-07T13:44:41;29.16;48.71
64599;SHT31;51008;51.504;11.548;2023-09-07T13:49:42;29.06;47.33
64599;SHT31;51008;51.504;11.548;2023-09-07T13:54:43;29.13;48.53
64599;SHT31;51008;51.504;11.548;2023-09-07T13:59:44;29.26;49.04
64599;SHT31;51008;51.504;11.548;2023-09-07T14:04:45;29.07;48.53
64599;SHT31;51008;51.504;11.548;2023-09-07T14:09:46;29.07;48.32
64599;SHT31;51008;51.504;11.548;2023-09-07T14:14:47;28.83;48.24
64599;SHT31;51008;51.504;11.548;2023-09-07T14:19:48;28.82;48.22
64599;SHT31;51008;51.504;11.548;2023-09-07T14:24:49;28.80;47.75
64599;SHT31;51008;51.504;11.548;2023-09-07T14:29:50;28.72;48.88
64599;SHT31;51008;51.504;11.548;2023-09-07T14:34:51;28.75;48.55
64599;SHT31;51008;51.504;11.548;2023-09-07T14:39:52;28.75;49.65
64599;SHT31;51008;51.504;11.548;2023-09-07T14:44:53;28.74;48.91
64599;SHT31;51008;51.504;11.548;2023-09-07T14:49:54;28.65;48.90
64599;SHT31;51008;51.504;11.548;2023-09-07T14:54:55;28.57;49.52
64599;SHT31;51008;51.504;11.548;2023-09-07T14:59:55;28.41;49.73
64599;SHT31;51008;51.504;11.548;2023-09-07T15:04:56;28.34;48.53
64599;SHT31;51008;51.504;11.548;2023-09-07T15:09:57;28.36;49.31
64599;SHT31;51008;51.504;11.548;2023-09-07T15:14:58;28.30;50.76
64599;SHT31;51008;51.504;11.548;2023-09-07T15:19:59;28.27;49.59
64599;SHT31;51008;51.504;11.548;2023-09-07T15:25:00;28.25;50.65
64599;SHT31;51008;51.504;11.548;2023-09-07T15:30:01;28.18;50.10
64599;SHT31;51008;51.504;11.548;2023-09-07T15:35:03;28.05;49.90
64599;SHT31;51008;51.504;11.548;2023-09-07T15:40:04;27.95;50.59
64599;SHT31;51008;51.504;11.548;2023-09-07T15:45:06;27.82;49.64
64599;SHT31;51008;51.504;11.548;2023-09-07T15:50:07;27.77;50.74
64599;SHT31;51008;51.504;11.548;2023-09-07T15:55:08;27.68;52.68
64599;SHT31;51008;51.504;11.548;2023-09-07T16:00:10;27.52;52.81
64599;SHT31;51008;51.504;11.548;2023-09-07T16:05:13;27.44;53.12
64599;SHT31;51008;51.504;11.548;2023-09-07T16:10:14;27.37;52.63
64599;SHT31;51008;51.504;11.548;2023-09-07T16:15:16;27.27;53.84
64599;SHT31;51008;51.504;11.548;2023-09-07T16:20:17;27.09;53.13
64599;SHT31;51008;51.504;11.548;2023-09-07T16:25:18;26.93;53.09
64599;SHT31;51008;51.504;11.548;2023-09-07T16:30:18;26.83;52.53
64599;SHT31;51008;51.504;11.548;2023-09-07T16:35:20;26.69;53.47
64599;SHT31;51008;51.504;11.548;2023-09-07T16:40:20;26.62;53.54
64599;SHT31;51008;51.504;11.548;2023-09-07T16:45:21;26.45;54.48
64599;SHT31;51008;51.504;11.548;2023-09-07T16:50:23;26.33;55.05
64599;SHT31;51008;51.504;11.548;2023-09-07T16:55:24;26.12;55.13
64599;SHT31;51008;51.504;11.548;2023-09-07T17:00:24;26.03;56.03
64599;SHT31;51008;51.504;11.548;2023-09-07T17:05:25;25.85;56.93
64599;SHT31;51008;51.504;11.548;2023-09-07T17:10:27;25.61;57.10
64599;SHT31;51008;51.504;11.548;2023-09-07T17:15:28;25.38;58.51
64599;SHT31;51008;51.504;11.548;2023-09-07T17:20:29;25.00;60.73
64599;SHT31;51008;51.504;11.548;2023-09-07T17:25:32;24.64;61.76
64599;SHT31;51008;51.504;11.548;2023-09-07T17:30:34;24.31;64.49
64599;SHT31;51008;51.504;11.548;2023-09-07T17:35:35;24.02;64.29
64599;SHT31;51008;51.504;11.548;2023-09-07T17:40:36;23.71;66.18
64599;SHT31;51008;51.504;11.548;2023-09-07T17:45:37;23.44;66.58
64599;SHT31;51008;51.504;11.548;2023-09-07T17:50:38;22.98;67.20
64599;SHT31;51008;51.504;11.548;2023-09-07T17:55:39;22.73;67.91
64599;SHT31;51008;51.504;11.548;2023-09-07T18:00:40;22.33;68.97
64599;SHT31;51008;51.504;11.548;2023-09-07T18:05:41;22.05;71.35
64599;SHT31;51008;51.504;11.548;2023-09-07T18:10:42;21.82;71.53
64599;SHT31;51008;51.504;11.548;2023-09-07T18:15:45;21.71;71.10
64599;SHT31;51008;51.504;11.548;2023-09-07T18:20:46;21.53;70.96
64599;SHT31;51008;51.504;11.548;2023-09-07T18:25:47;21.36;71.05
64599;SHT31;51008;51.504;11.548;2023-09-07T18:30:48;21.22;70.71
64599;SHT31;51008;51.504;11.548;2023-09-07T18:35:59;21.07;71.15
64599;SHT31;51008;51.504;11.548;2023-09-07T18:41:01;20.94;71.65
64599;SHT31;51008;51.504;11.548;2023-09-07T18:46:06;20.81;71.02
64599;SHT31;51008;51.504;11.548;2023-09-07T18:51:07;20.63;72.94
64599;SHT31;51008;51.504;11.548;2023-09-07T18:56:08;20.51;71.94
64599;SHT31;51008;51.504;11.548;2023-09-07T19:01:14;20.48;73.18
64599;SHT31;51008;51.504;11.548;2023-09-07T19:06:15;20.37;72.45
64599;SHT31;51008;51.504;11.548;2023-09-07T19:11:16;20.27;72.17
64599;SHT31;51008;51.504;11.548;2023-09-07T19:16:17;20.16;72.77
64599;SHT31;51008;51.504;11.548;2023-09-07T19:21:18;20.08;73.20
64599;SHT31;51008;51.504;11.548;2023-09-07T19:26:33;19.95;73.19
64599;SHT31;51008;51.504;11.548;2023-09-07T19:31:35;19.78;73.71
64599;SHT31;51008;51.504;11.548;2023-09-07T19:36:36;19.67;73.74
64599;SHT31;51008;51.504;11.548;2023-09-07T19:41:38;19.60;74.00
64599;SHT31;51008;51.504;11.548;2023-09-07T19:46:39;19.49;74.76
64599;SHT31;51008;51.504;11.548;2023-09-07T19:51:40;19.37;74.80
64599;SHT31;51008;51.504;11.548;2023-09-07T19:56:41;19.23;75.18
64599;SHT31;51008;51.504;11.548;2023-09-07T20:06:53;18.99;76.09
64599;SHT31;51008;51.504;11.548;2023-09-07T20:11:54;18.85;76.22
64599;SHT31;51008;51.504;11.548;2023-09-07T20:16:55;18.72;76.55
64599;SHT31;51008;51.504;11.548;2023-09-07T20:21:56;18.60;77.12
64599;SHT31;51008;51.504;11.548;2023-09-07T20:26:57;18.41;77.66
64599;SHT31;51008;51.504;11.548;2023-09-07T20:31:58;18.33;78.73
64599;SHT31;51008;51.504;11.548;2023-09-07T20:36:59;18.19;78.74
64599;SHT31;51008;51.504;11.548;2023-09-07T20:42:00;18.13;78.80
64599;SHT31;51008;51.504;11.548;2023-09-07T20:47:01;18.08;78.76
64599;SHT31;51008;51.504;11.548;2023-09-07T20:52:03;18.15;79.11
64599;SHT31;51008;51.504;11.548;2023-09-07T20:57:07;18.13;78.87
64599;SHT31;51008;51.504;11.548;2023-09-07T21:02:08;18.06;78.92
64599;SHT31;51008;51.504;11.548;2023-09-07T21:07:09;17.92;79.14
64599;SHT31;51008;51.504;11.548;2023-09-07T21:12:10;17.85;79.53
64599;SHT31;51008;51.504;11.548;2023-09-07T21:17:11;17.80;79.23
64599;SHT31;51008;51.504;11.548;2023-09-07T21:22:12;17.71;79.92
64599;SHT31;51008;51.504;11.548;2023-09-07T21:27:13;17.66;80.13
64599;SHT31;51008;51.504;11.548;2023-09-07T21:32:14;17.60;79.63
64599;SHT31;51008;51.504;11.548;2023-09-07T21:37:15;17.49;80.07
64599;SHT31;51008;51.504;11.548;2023-09-07T21:42:16;17.42;80.73
64599;SHT31;51008;51.504;11.548;2023-09-07T21:47:17;17.30;80.81
64599;SHT31;51008;51.504;11.548;2023-09-07T21:52:18;17.22;80.96
64599;SHT31;51008;51.504;11.548;2023-09-07T21:57:19;17.09;81.32
64599;SHT31;51008;51.504;11.548;2023-09-07T22:02:21;16.96;81.73
64599;SHT31;51008;51.504;11.548;2023-09-07T22:07:22;16.84;82.06
64599;SHT31;51008;51.504;11.548;2023-09-07T22:12:23;16.74;82.61
64599;SHT31;51008;51.504;11.548;2023-09-07T22:17:24;16.59;82.87
64599;SHT31;51008;51.504;11.548;2023-09-07T22:22:25;16.50;83.73
64599;SHT31;51008;51.504;11.548;2023-09-07T22:27:26;16.36;83.67
64599;SHT31;51008;51.504;11.548;2023-09-07T22:32:27;16.25;84.08
64599;SHT31;51008;51.504;11.548;2023-09-07T22:37:28;16.15;84.19
64599;SHT31;51008;51.504;11.548;2023-09-07T22:42:29;16.12;85.42
64599;SHT31;51008;51.504;11.548;2023-09-07T22:47:30;16.11;85.41
64599;SHT31;51008;51.504;11.548;2023-09-07T22:52:31;16.02;84.98
64599;SHT31;51008;51.504;11.548;2023-09-07T22:57:36;15.94;85.11
64599;SHT31;51008;51.504;11.548;2023-09-07T23:02:37;15.85;84.94
64599;SHT31;51008;51.504;11.548;2023-09-07T23:07:38;15.76;85.47
64599;SHT31;51008;51.504;11.548;2023-09-07T23:12:39;15.63;85.83
64599;SHT31;51008;51.504;11.548;2023-09-07T23:17:40;15.57;86.28
64599;SHT31;51008;51.504;11.548;2023-09-07T23:22:41;15.53;86.38
64599;SHT31;51008;51.504;11.548;2023-09-07T23:27:43;15.53;86.55
64599;SHT31;51008;51.504;11.548;2023-09-07T23:32:44;15.53;86.44
64599;SHT31;51008;51.504;11.548;2023-09-07T23:37:45;15.47;86.47
64599;SHT31;51008;51.504;11.548;2023-09-07T23:42:46;15.43;86.30
64599;SHT31;51008;51.504;11.548;2023-09-07T23:47:47;15.33;86.68
64599;SHT31;51008;51.504;11.548;2023-09-07T23:52:47;15.26;86.90
64599;SHT31;51008;51.504;11.548;2023-09-07T23:57:48;15.26;87.50
